Time;durP1;ratioP1;P1;durP2;ratioP2;P2;SDS_P1;SDS_P2;PMS_P1;PMS_P2;Temp;Humidity;BMP_temperature;BMP_pressure;BME280_temperature;BME280_humidity;BME280_pressure;Samples;Min_cycle;Max_cycle;Signal;HPM_P1;HPM_P2
2020/12/22 00:00:57;;;;;;;0.20;0.20;;;;;;;-2.45;91.14;102471.56;1786539;80;21655;-48
2020/12/22 00:03:25;;;;;;;0.10;0.10;;;;;;;-2.48;91.03;102464.66;1786415;80;21142;-50
2020/12/22 00:05:52;;;;;;;0.10;0.10;;;;;;;-2.48;91.05;102467.34;1786327;79;21462;-48
2020/12/22 00:08:20;;;;;;;0.10;0.10;;;;;;;-2.48;91.12;102469.18;1751788;81;21134;-48
2020/12/22 00:10:49;;;;;;;0.75;0.50;;;;;;;-2.48;91.32;102466.50;1751443;80;21167;-48
2020/12/22 00:13:16;;;;;;;0.05;0.05;;;;;;;-2.49;91.16;102464.83;1750444;81;21155;-49
2020/12/22 00:15:45;;;;;;;0.70;0.70;;;;;;;-2.52;91.26;102463.75;1738645;81;21134;-48
2020/12/22 00:18:14;;;;;;;0.10;0.10;;;;;;;-2.53;91.34;102464.25;1752150;81;21538;-48
2020/12/22 00:20:41;;;;;;;0.10;0.10;;;;;;;-2.52;91.58;102469.11;1739656;80;21139;-47
2020/12/22 00:23:08;;;;;;;0.10;0.10;;;;;;;-2.50;91.66;102471.16;1746934;81;21662;-48
2020/12/22 00:25:43;;;;;;;0.10;0.10;;;;;;;-2.51;91.71;102469.48;1751663;80;21110;-49
2020/12/22 00:28:13;;;;;;;0.30;0.20;;;;;;;-2.51;91.86;102468.14;1750931;81;21163;-50
2020/12/22 00:30:41;;;;;;;7.45;0.55;;;;;;;-2.50;92.06;102468.48;1751842;80;21604;-49
2020/12/22 00:33:10;;;;;;;0.10;0.10;;;;;;;-2.49;92.19;102467.51;1733086;82;21163;-48
2020/12/22 00:35:37;;;;;;;0.10;0.10;;;;;;;-2.48;92.27;102466.50;1786223;78;21114;-48
2020/12/22 00:38:06;;;;;;;0.35;0.35;;;;;;;-2.49;92.35;102465.67;1786562;80;21106;-48
2020/12/22 00:40:34;;;;;;;0.20;0.20;;;;;;;-2.50;92.31;102459.11;1737934;81;21524;-54
2020/12/22 00:43:02;;;;;;;0.10;0.10;;;;;;;-2.50;92.36;102467.14;1738048;82;21125;-54
2020/12/22 00:45:30;;;;;;;0.20;0.20;;;;;;;-2.51;92.42;102461.45;1737611;82;21148;-54
2020/12/22 00:47:58;;;;;;;0.10;0.10;;;;;;;-2.52;92.49;102457.94;1695590;83;21138;-54
2020/12/22 00:50:25;;;;;;;0.10;0.10;;;;;;;-2.52;92.40;102461.08;1753413;80;21157;-54
2020/12/22 00:52:53;;;;;;;0.40;0.40;;;;;;;-2.54;92.44;102456.39;1736781;81;21114;-54
2020/12/22 00:55:20;;;;;;;0.15;0.15;;;;;;;-2.56;92.51;102453.84;1722634;81;21191;-55
2020/12/22 00:57:53;;;;;;;0.10;0.10;;;;;;;-2.55;92.57;102454.68;1719574;83;21154;-54
2020/12/22 01:00:21;;;;;;;0.05;0.05;;;;;;;-2.56;92.64;102455.69;1721565;81;21121;-54
2020/12/22 01:02:49;;;;;;;0.62;0.62;;;;;;;-2.56;92.71;102457.86;1716636;83;21095;-54
2020/12/22 01:05:17;;;;;;;0.03;0.03;;;;;;;-2.57;92.70;102453.97;1720326;82;21448;-54
2020/12/22 01:07:44;;;;;;;5.28;0.55;;;;;;;-2.58;92.71;102455.81;1723857;83;21126;-54
2020/12/22 01:10:11;;;;;;;0.10;0.10;;;;;;;-2.60;92.80;102450.63;1724173;83;21142;-54
2020/12/22 01:12:39;;;;;;;0.20;0.20;;;;;;;-2.57;92.93;102447.28;1724226;83;21127;-54
2020/12/22 01:15:06;;;;;;;0.13;0.13;;;;;;;-2.58;92.84;102449.12;1690032;83;21145;-54
2020/12/22 01:17:34;;;;;;;0.10;0.10;;;;;;;-2.57;92.89;102448.62;1733153;81;21152;-54
2020/12/22 01:20:01;;;;;;;0.10;0.10;;;;;;;-2.57;92.94;102446.81;1732341;82;21138;-54
2020/12/22 01:22:29;;;;;;;0.10;0.10;;;;;;;-2.57;93.00;102447.28;1753386;80;21135;-54
2020/12/22 01:24:56;;;;;;;0.17;0.17;;;;;;;-2.57;93.05;102445.94;1723962;81;21183;-54
2020/12/22 01:27:24;;;;;;;0.28;0.28;;;;;;;-2.56;93.12;102446.31;1748287;80;21102;-54
2020/12/22 01:29:52;;;;;;;0.20;0.20;;;;;;;-2.56;93.26;102439.63;1724260;83;21122;-48
2020/12/22 01:32:20;;;;;;;0.98;0.98;;;;;;;-2.55;93.29;102446.65;1724090;83;21169;-52
2020/12/22 01:34:48;;;;;;;0.00;0.00;;;;;;;-2.55;93.33;102452.00;1721451;82;21585;-48
2020/12/22 01:37:16;;;;;;;1.75;0.33;;;;;;;-2.57;93.32;102447.28;1723584;83;21126;-48
2020/12/22 01:39:44;;;;;;;0.10;0.10;;;;;;;-2.58;93.41;102454.47;1750707;80;21387;-49
2020/12/22 01:42:13;;;;;;;0.10;0.10;;;;;;;-2.62;93.40;102448.58;1724309;83;21118;-48
2020/12/22 01:44:41;;;;;;;0.30;0.30;;;;;;;-2.66;93.44;102448.50;1724211;81;21686;-54
2020/12/22 01:47:09;;;;;;;1.55;1.45;;;;;;;-2.68;93.52;102446.95;1730852;81;21568;-54
2020/12/22 01:49:36;;;;;;;0.10;0.10;;;;;;;-2.71;93.44;102445.41;1731278;81;21161;-54
2020/12/22 01:52:03;;;;;;;0.10;0.10;;;;;;;-2.73;93.48;102450.06;1753500;81;21109;-49
2020/12/22 01:54:31;;;;;;;0.00;0.00;;;;;;;-2.73;93.59;102451.40;1724204;82;21136;-49
2020/12/22 01:56:59;;;;;;;0.10;0.10;;;;;;;-2.73;93.73;102446.05;1716301;82;21156;-48
2020/12/22 01:59:26;;;;;;;2.60;0.47;;;;;;;-2.71;93.90;102442.73;1720694;81;21292;-49
2020/12/22 02:01:54;;;;;;;0.37;0.37;;;;;;;-2.68;93.99;102445.62;1751702;80;21468;-54
2020/12/22 02:04:22;;;;;;;0.30;0.30;;;;;;;-2.66;93.98;102443.15;1752089;80;21142;-54
2020/12/22 02:06:49;;;;;;;0.72;0.72;;;;;;;-2.69;93.68;102438.59;1753194;81;21126;-53
2020/12/22 02:09:18;;;;;;;0.20;0.20;;;;;;;-2.75;93.67;102438.65;1753006;81;21431;-54
2020/12/22 02:11:45;;;;;;;0.28;0.25;;;;;;;-2.75;93.91;102439.98;1752690;81;21139;-54
2020/12/22 02:14:13;;;;;;;0.10;0.10;;;;;;;-2.72;94.12;102438.39;1723892;83;21119;-54
2020/12/22 02:16:40;;;;;;;0.00;0.00;;;;;;;-2.71;94.01;102435.21;1724158;83;21102;-54
2020/12/22 02:19:09;;;;;;;0.28;0.28;;;;;;;-2.72;93.99;102434.38;1724106;83;21618;-54
2020/12/22 02:21:37;;;;;;;0.53;0.40;;;;;;;-2.72;94.15;102434.38;1702510;82;21646;-54
2020/12/22 02:24:04;;;;;;;0.17;0.17;;;;;;;-2.69;94.26;102432.73;1732470;82;21414;-54
2020/12/22 02:26:32;;;;;;;0.15;0.15;;;;;;;-2.68;94.37;102430.41;1718624;82;21133;-54
2020/12/22 02:29:00;;;;;;;0.10;0.10;;;;;;;-2.67;94.28;102429.43;1703480;82;21555;-54
2020/12/22 02:31:28;;;;;;;0.25;0.25;;;;;;;-2.69;94.10;102435.42;1712006;83;21242;-54
2020/12/22 02:33:55;;;;;;;0.05;0.05;;;;;;;-2.72;94.07;102423.67;1732651;81;21175;-54
2020/12/22 02:36:23;;;;;;;0.17;0.17;;;;;;;-2.72;94.15;102430.83;1733305;81;21110;-54
2020/12/22 02:38:50;;;;;;;1.40;0.45;;;;;;;-2.72;93.95;102437.52;1732568;81;21134;-54
2020/12/22 02:41:19;;;;;;;0.15;0.15;;;;;;;-2.76;93.79;102427.61;1727406;81;21182;-54
2020/12/22 02:43:46;;;;;;;0.08;0.08;;;;;;;-2.78;93.88;102433.59;1726859;81;21225;-54
2020/12/22 02:46:15;;;;;;;0.10;0.10;;;;;;;-2.78;94.08;102424.23;1727034;83;21434;-54
2020/12/22 02:48:43;;;;;;;0.72;0.37;;;;;;;-2.79;93.91;102421.21;1727138;83;21608;-49
2020/12/22 02:51:11;;;;;;;7.67;1.12;;;;;;;-2.78;94.02;102424.73;1726455;83;21585;-49
2020/12/22 02:53:38;;;;;;;0.00;0.00;;;;;;;-2.78;94.18;102424.23;1718352;81;21133;-48
2020/12/22 02:56:06;;;;;;;0.10;0.10;;;;;;;-2.76;94.23;102422.25;1700714;83;21194;-49
2020/12/22 02:58:34;;;;;;;1.25;0.75;;;;;;;-2.77;94.09;102416.53;1700882;83;21162;-50
2020/12/22 03:01:02;;;;;;;0.23;0.08;;;;;;;-2.79;94.03;102417.20;1727078;82;21142;-48
2020/12/22 03:03:30;;;;;;;0.20;0.20;;;;;;;-2.78;94.15;102426.06;1726536;81;21680;-48
2020/12/22 03:05:58;;;;;;;0.35;0.15;;;;;;;-2.78;94.13;102417.53;1727120;83;21134;-47
2020/12/22 03:08:26;;;;;;;0.20;0.20;;;;;;;-2.78;94.27;102420.21;1727208;81;21135;-48
2020/12/22 03:10:53;;;;;;;0.17;0.17;;;;;;;-2.76;94.38;102420.91;1726880;82;21452;-48
2020/12/22 03:13:21;;;;;;;1.62;1.52;;;;;;;-2.73;94.47;102421.96;1713303;83;21592;-48
2020/12/22 03:15:49;;;;;;;0.20;0.20;;;;;;;-2.73;94.42;102421.96;1726236;83;21465;-48
2020/12/22 03:18:18;;;;;;;0.60;0.30;;;;;;;-2.75;94.29;102425.27;1713906;82;21465;-49
2020/12/22 03:20:46;;;;;;;0.30;0.30;;;;;;;-2.77;94.28;102423.23;1715154;83;21577;-49
2020/12/22 03:23:14;;;;;;;0.80;0.80;;;;;;;-2.78;94.33;102422.05;1735392;82;21433;-48
2020/12/22 03:25:42;;;;;;;0.42;0.42;;;;;;;-2.78;94.38;102420.71;1729112;81;21164;-48
2020/12/22 03:28:09;;;;;;;0.10;0.10;;;;;;;-2.79;94.47;102421.21;1740240;82;21654;-48
2020/12/22 03:30:37;;;;;;;0.10;0.10;;;;;;;-2.78;94.58;102416.20;1740122;82;21134;-49
2020/12/22 03:33:04;;;;;;;0.10;0.10;;;;;;;-2.76;94.60;102418.24;1739987;82;21114;-49
2020/12/22 03:35:32;;;;;;;0.28;0.28;;;;;;;-2.74;94.68;102424.30;1709141;83;21597;-49
2020/12/22 03:38:00;;;;;;;1.57;1.50;;;;;;;-2.73;94.75;102425.98;1706480;84;21731;-48
2020/12/22 03:40:27;;;;;;;0.53;0.53;;;;;;;-2.71;94.83;102422.66;1696161;83;21117;-49
2020/12/22 03:42:55;;;;;;;1.02;0.68;;;;;;;-2.71;94.86;102418.66;1723756;83;21554;-48
2020/12/22 03:45:23;;;;;;;0.93;0.93;;;;;;;-2.70;94.88;102419.48;1724128;83;21175;-50
2020/12/22 03:47:50;;;;;;;0.10;0.10;;;;;;;-2.71;94.94;102419.16;1753340;81;21130;-49
2020/12/22 03:50:20;;;;;;;0.57;0.57;;;;;;;-2.71;95.01;102425.84;1723107;83;21189;-48
2020/12/22 03:52:47;;;;;;;0.10;0.10;;;;;;;-2.70;95.12;102423.50;1721811;83;21134;-48
2020/12/22 03:55:15;;;;;;;0.10;0.10;;;;;;;-2.72;95.07;102419.66;1724122;81;21122;-49
2020/12/22 03:57:43;;;;;;;0.62;0.62;;;;;;;-2.72;95.18;102418.31;1724473;83;21186;-49
2020/12/22 04:00:12;;;;;;;0.50;0.50;;;;;;;-2.69;95.32;102426.05;1752902;80;22014;-48
2020/12/22 04:02:40;;;;;;;0.55;0.47;;;;;;;-2.67;95.44;102427.23;1724386;83;21254;-48
2020/12/22 04:05:08;;;;;;;0.45;0.45;;;;;;;-2.65;95.50;102422.08;1753132;81;21158;-48
2020/12/22 04:07:35;;;;;;;0.53;0.53;;;;;;;-2.64;95.57;102414.42;1751540;81;21106;-48
2020/12/22 04:10:07;;;;;;;0.80;0.80;;;;;;;-2.63;95.58;102417.43;1724305;83;21122;-49
2020/12/22 04:12:35;;;;;;;0.42;0.42;;;;;;;-2.64;95.53;102406.39;1753701;80;21131;-48
2020/12/22 04:15:04;;;;;;;0.55;0.55;;;;;;;-2.64;95.63;102403.71;1724026;81;21668;-48
2020/12/22 04:17:32;;;;;;;1.57;1.47;;;;;;;-2.63;95.69;102404.05;1727416;82;21130;-48
2020/12/22 04:19:59;;;;;;;0.50;0.50;;;;;;;-2.62;95.77;102401.73;1732554;81;21158;-49
2020/12/22 04:22:27;;;;;;;1.07;0.45;;;;;;;-2.62;95.84;102400.40;1732533;82;21153;-49
2020/12/22 04:24:54;;;;;;;1.32;1.15;;;;;;;-2.61;95.91;102402.08;1732668;82;21445;-49
2020/12/22 04:27:22;;;;;;;0.10;0.10;;;;;;;-2.60;95.94;102398.43;1730835;82;21514;-48
2020/12/22 04:29:50;;;;;;;1.20;0.85;;;;;;;-2.60;96.00;102395.75;1732660;81;21158;-48
2020/12/22 04:32:17;;;;;;;0.10;0.10;;;;;;;-2.59;96.07;102399.27;1732670;82;21133;-47
2020/12/22 04:34:46;;;;;;;0.10;0.10;;;;;;;-2.58;96.07;102405.45;1732327;81;21094;-48
2020/12/22 04:37:14;;;;;;;0.10;0.10;;;;;;;-2.58;96.11;102401.44;1732587;82;21712;-48
2020/12/22 04:39:42;;;;;;;0.30;0.30;;;;;;;-2.61;96.17;102402.08;1701200;82;21125;-48
2020/12/22 04:42:10;;;;;;;0.90;0.42;;;;;;;-2.63;95.90;102400.53;1732625;81;21143;-47
2020/12/22 04:44:37;;;;;;;0.95;0.30;;;;;;;-2.68;95.81;102398.28;1673365;84;21161;-50
2020/12/22 04:47:05;;;;;;;0.37;0.37;;;;;;;-2.71;95.72;102402.59;1727710;82;21149;-48
2020/12/22 04:49:32;;;;;;;0.62;0.62;;;;;;;-2.75;95.75;102397.17;1701675;82;21575;-48
2020/12/22 04:52:00;;;;;;;0.10;0.10;;;;;;;-2.76;95.76;102402.19;1726162;82;21142;-48
2020/12/22 04:54:29;;;;;;;0.17;0.17;;;;;;;-2.78;95.82;102404.16;1696367;83;21129;-49
2020/12/22 04:56:57;;;;;;;0.98;0.75;;;;;;;-2.80;95.95;102402.11;1695694;83;21161;-50
2020/12/22 04:59:24;;;;;;;0.82;0.82;;;;;;;-2.82;96.07;102404.08;1664571;84;21146;-48
2020/12/22 05:01:52;;;;;;;0.42;0.42;;;;;;;-2.81;96.21;102397.76;1707909;83;21140;-50
2020/12/22 05:04:19;;;;;;;0.25;0.20;;;;;;;-2.80;96.34;102395.42;1685445;81;21110;-48
2020/12/22 05:06:48;;;;;;;0.72;0.30;;;;;;;-2.81;96.33;102394.59;1723767;83;21146;-48
2020/12/22 05:09:16;;;;;;;0.23;0.23;;;;;;;-2.80;96.47;102398.09;1724316;81;20980;-49
2020/12/22 05:11:44;;;;;;;0.20;0.20;;;;;;;-2.78;96.60;102396.13;1724265;83;21126;-49
2020/12/22 05:14:11;;;;;;;2.08;0.55;;;;;;;-2.77;96.64;102396.97;1723741;81;21181;-48
2020/12/22 05:16:39;;;;;;;1.17;1.17;;;;;;;-2.76;96.72;102390.64;1651912;83;21149;-52
2020/12/22 05:19:07;;;;;;;0.20;0.20;;;;;;;-2.75;96.76;102391.81;1701867;82;21194;-48
2020/12/22 05:21:36;;;;;;;1.85;0.95;;;;;;;-2.75;96.80;102392.32;1650375;84;21125;-48
2020/12/22 05:24:05;;;;;;;0.20;0.20;;;;;;;-2.74;96.85;102391.34;1706055;83;21184;-49
2020/12/22 05:26:33;;;;;;;1.98;1.00;;;;;;;-2.75;96.88;102394.49;1726522;82;21145;-48
2020/12/22 05:29:18;;;;;;;0.20;0.20;;;;;;;-2.75;96.95;102390.98;1732511;82;21134;-48
2020/12/22 05:31:48;;;;;;;1.87;1.67;;;;;;;-2.73;97.10;102388.52;1716121;81;21541;-49
2020/12/22 05:34:18;;;;;;;0.78;0.78;;;;;;;-2.74;96.99;102389.52;1731621;81;21042;-48
2020/12/22 05:36:47;;;;;;;3.15;0.72;;;;;;;-2.75;97.00;102389.14;1750894;81;21589;-49
2020/12/22 05:39:18;;;;;;;0.17;0.17;;;;;;;-2.75;97.17;102391.81;1724439;81;21153;-49
2020/12/22 05:41:46;;;;;;;1.25;0.75;;;;;;;-2.75;97.21;102385.13;1703772;81;21178;-50
2020/12/22 05:44:14;;;;;;;0.88;0.82;;;;;;;-2.74;97.29;102385.50;1723881;83;21127;-49
2020/12/22 05:46:42;;;;;;;0.20;0.20;;;;;;;-2.73;97.39;102380.48;1723757;82;21011;-49
2020/12/22 05:49:12;;;;;;;3.62;0.75;;;;;;;-2.73;97.38;102376.47;1723294;81;21126;-50
2020/12/22 05:51:44;;;;;;;0.45;0.30;;;;;;;-2.75;97.29;102373.59;1730031;82;21134;-50
2020/12/22 05:54:15;;;;;;;1.45;1.35;;;;;;;-2.76;97.35;102370.08;1730904;82;27841;-50
2020/12/22 05:56:44;;;;;;;0.53;0.53;;;;;;;-2.76;97.46;102367.90;1733213;82;21157;-49
2020/12/22 05:59:21;;;;;;;2.90;0.65;;;;;;;-2.77;97.53;102360.84;1740860;82;21598;-50
2020/12/22 06:01:49;;;;;;;2.10;1.67;;;;;;;-2.77;97.60;102371.05;1740997;82;21150;-48
2020/12/22 06:04:18;;;;;;;1.47;0.30;;;;;;;-2.77;97.65;102367.03;1704622;82;21162;-49
2020/12/22 06:06:47;;;;;;;1.55;1.37;;;;;;;-2.77;97.83;102373.72;1718328;82;21153;-48
2020/12/22 06:09:15;;;;;;;1.07;0.45;;;;;;;-2.75;97.90;102374.42;1720398;82;21153;-49
2020/12/22 06:11:46;;;;;;;0.42;0.42;;;;;;;-2.76;97.88;102372.75;1710153;82;21131;-48
2020/12/22 06:14:21;;;;;;;0.82;0.82;;;;;;;-2.75;97.98;102366.39;1687582;82;21421;-50
2020/12/22 06:16:49;;;;;;;0.62;0.55;;;;;;;-2.76;97.93;102360.70;1730527;82;21540;-46
2020/12/22 06:19:16;;;;;;;2.00;1.25;;;;;;;-2.76;97.94;102363.88;1739358;81;21169;-46
2020/12/22 06:21:46;;;;;;;1.17;0.72;;;;;;;-2.76;98.07;102365.22;1730384;82;21149;-50
2020/12/22 06:24:14;;;;;;;0.10;0.10;;;;;;;-2.75;98.15;102368.23;1741038;82;21117;-50
2020/12/22 06:26:41;;;;;;;4.20;0.85;;;;;;;-2.75;98.16;102373.09;1757680;81;21125;-47
2020/12/22 06:29:26;;;;;;;0.62;0.62;;;;;;;-2.75;98.19;102361.05;1732693;81;41131;-47
2020/12/22 06:31:53;;;;;;;0.35;0.35;;;;;;;-2.71;98.37;102365.13;1731827;82;21548;-47
2020/12/22 06:34:24;;;;;;;1.57;1.40;;;;;;;-2.67;98.42;102361.66;1732786;81;21173;-50
2020/12/22 06:36:57;;;;;;;0.07;0.07;;;;;;;-2.64;98.46;102364.06;1740974;82;21125;-50
2020/12/22 06:39:44;;;;;;;0.20;0.20;;;;;;;-2.64;98.43;102360.88;1732871;81;22457;-47
2020/12/22 06:42:42;;;;;;;0.10;0.10;;;;;;;-2.64;98.44;102358.20;1732814;82;21165;-49
2020/12/22 06:45:30;;;;;;;3.08;0.78;;;;;;;-2.63;98.47;102352.35;1790869;78;21133;-51
2020/12/22 06:48:00;;;;;;;0.30;0.30;;;;;;;-2.62;98.51;102358.08;1750666;81;21162;-49
2020/12/22 06:50:47;;;;;;;0.23;0.23;;;;;;;-2.58;98.65;102363.97;1724259;81;21451;-47
2020/12/22 06:53:35;;;;;;;0.42;0.42;;;;;;;-2.58;98.64;102356.77;1721791;83;21102;-48
2020/12/22 06:56:03;;;;;;;1.10;0.60;;;;;;;-2.54;98.78;102354.66;1724192;83;21700;-46
2020/12/22 06:58:44;;;;;;;1.47;1.37;;;;;;;-2.49;98.76;102358.58;1732493;81;21166;-47
2020/12/22 07:01:30;;;;;;;6.12;0.47;;;;;;;-2.48;98.74;102348.70;1732372;82;21162;-46
2020/12/22 07:04:21;;;;;;;0.75;0.45;;;;;;;-2.46;98.66;102349.41;1732434;82;21145;-47
2020/12/22 07:07:04;;;;;;;0.65;0.65;;;;;;;-2.48;98.54;102344.19;1732601;82;21114;-48
2020/12/22 07:09:33;;;;;;;0.10;0.10;;;;;;;-2.50;98.58;102344.83;1732515;82;21422;-47
2020/12/22 07:12:13;;;;;;;0.45;0.45;;;;;;;-2.49;98.69;102346.53;1732245;82;21588;-49
2020/12/22 07:14:47;;;;;;;0.70;0.70;;;;;;;-2.46;98.68;102340.04;1732393;82;21138;-48
2020/12/22 07:17:19;;;;;;;0.50;0.42;;;;;;;-2.45;98.72;102336.36;1703118;84;21202;-46
2020/12/22 07:19:48;;;;;;;0.50;0.50;;;;;;;-2.45;98.64;102331.00;1673468;84;21153;-46
2020/12/22 07:22:18;;;;;;;0.90;0.90;;;;;;;-2.45;98.64;102322.97;1698777;84;21165;-47
2020/12/22 07:24:45;;;;;;;0.10;0.10;;;;;;;-2.45;98.62;102322.50;1703111;82;21149;-48
2020/12/22 07:27:13;;;;;;;3.42;1.10;;;;;;;-2.42;98.68;102322.70;1705830;82;21122;-47
2020/12/22 07:29:41;;;;;;;0.70;0.70;;;;;;;-2.39;98.76;102315.70;1732728;82;21122;-49
2020/12/22 07:32:09;;;;;;;0.23;0.23;;;;;;;-2.37;98.56;102313.73;1732714;82;21142;-49
2020/12/22 07:34:36;;;;;;;0.72;0.72;;;;;;;-2.32;98.66;102312.78;1732567;82;21181;-47
2020/12/22 07:37:11;;;;;;;0.57;0.37;;;;;;;-2.29;98.76;102318.34;1732555;82;21130;-48
2020/12/22 07:39:39;;;;;;;0.30;0.30;;;;;;;-2.27;98.62;102311.84;1732541;82;21184;-47
2020/12/22 07:42:12;;;;;;;1.05;1.05;;;;;;;-2.25;98.62;102312.53;1729367;81;21193;-47
2020/12/22 07:44:41;;;;;;;0.33;0.33;;;;;;;-2.21;98.71;102311.22;1727149;82;21529;-46
2020/12/22 07:47:09;;;;;;;0.65;0.65;;;;;;;-2.17;98.55;102307.27;1727183;82;21157;-47
2020/12/22 07:49:37;;;;;;;0.35;0.28;;;;;;;-2.17;98.49;102312.63;1726891;82;21133;-47
2020/12/22 07:52:04;;;;;;;0.33;0.33;;;;;;;-2.12;98.60;102308.16;1726264;83;21167;-50
2020/12/22 07:54:32;;;;;;;0.10;0.10;;;;;;;-2.09;98.39;102311.03;1727154;83;21572;-47
2020/12/22 07:57:00;;;;;;;0.75;0.75;;;;;;;-2.07;98.48;102314.41;1727245;82;21149;-47
2020/12/22 07:59:28;;;;;;;0.80;0.53;;;;;;;-2.02;98.54;102306.76;1727283;83;21528;-48
2020/12/22 08:01:55;;;;;;;0.50;0.50;;;;;;;-1.99;98.47;102299.75;1727045;82;21485;-46
2020/12/22 08:04:25;;;;;;;3.37;0.53;;;;;;;-1.94;98.44;102305.50;1715726;82;21601;-46
2020/12/22 08:07:06;;;;;;;0.33;0.33;;;;;;;-1.90;98.46;102301.53;1694961;84;21136;-47
2020/12/22 08:09:37;;;;;;;1.00;0.90;;;;;;;-1.87;98.39;102305.23;1695175;84;21427;-48
2020/12/22 08:12:06;;;;;;;1.27;1.22;;;;;;;-1.81;98.32;102299.25;1695169;84;21070;-46
2020/12/22 08:14:38;;;;;;;0.10;0.10;;;;;;;-1.77;98.29;102307.34;1694967;83;21609;-48
2020/12/22 08:17:15;;;;;;;1.25;0.72;;;;;;;-1.74;98.06;102298.99;1695018;84;21185;-47
2020/12/22 08:19:42;;;;;;;0.68;0.65;;;;;;;-1.74;97.88;102302.17;1694904;84;21186;-49
2020/12/22 08:22:15;;;;;;;0.00;0.00;;;;;;;-1.70;97.92;102292.01;1695091;84;21202;-49
2020/12/22 08:24:44;;;;;;;0.00;0.00;;;;;;;-1.64;98.09;102294.89;1695253;84;21182;-47
2020/12/22 08:27:11;;;;;;;3.30;1.02;;;;;;;-1.56;98.09;102290.09;1716623;83;21171;-48
2020/12/22 08:29:41;;;;;;;1.45;1.35;;;;;;;-1.49;97.96;102292.51;1727209;83;21804;-47
2020/12/22 08:32:08;;;;;;;1.15;1.05;;;;;;;-1.44;97.86;102291.55;1727123;82;21145;-48
2020/12/22 08:34:36;;;;;;;0.62;0.50;;;;;;;-1.39;97.64;102291.08;1702302;83;21476;-47
2020/12/22 08:37:09;;;;;;;1.45;0.80;;;;;;;-1.36;97.44;102287.61;1726786;83;21134;-49
2020/12/22 08:39:43;;;;;;;0.53;0.53;;;;;;;-1.36;97.13;102291.63;1726922;81;21118;-47
2020/12/22 08:42:11;;;;;;;1.37;0.35;;;;;;;-1.40;96.64;102287.56;1712845;82;21524;-47
2020/12/22 08:44:50;;;;;;;1.00;1.00;;;;;;;-1.43;96.57;102283.86;1732306;82;21498;-48
2020/12/22 08:47:19;;;;;;;2.12;1.15;;;;;;;-1.45;96.63;102287.70;1732330;82;21137;-47
2020/12/22 08:49:47;;;;;;;1.67;1.55;;;;;;;-1.43;96.56;102281.69;1732364;81;21145;-47
2020/12/22 08:52:19;;;;;;;0.25;0.25;;;;;;;-1.45;96.22;102282.33;1732570;82;21145;-47
2020/12/22 08:54:47;;;;;;;1.00;0.72;;;;;;;-1.49;96.17;102279.10;1732548;81;21548;-47
2020/12/22 08:57:23;;;;;;;0.20;0.20;;;;;;;-1.51;96.00;102269.03;1732402;82;21173;-48
2020/12/22 08:59:51;;;;;;;0.45;0.45;;;;;;;-1.52;96.08;102270.03;1732675;82;21114;-47
2020/12/22 09:02:31;;;;;;;0.72;0.72;;;;;;;-1.50;96.11;102276.09;1732627;82;21181;-47
2020/12/22 09:05:13;;;;;;;0.60;0.60;;;;;;;-1.51;96.04;102269.03;1732305;82;21122;-47
2020/12/22 09:07:42;;;;;;;0.50;0.50;;;;;;;-1.50;96.00;102264.02;1728875;82;21134;-48
2020/12/22 09:10:11;;;;;;;0.10;0.10;;;;;;;-1.48;96.03;102262.03;1732551;82;21098;-47
2020/12/22 09:12:38;;;;;;;0.00;0.00;;;;;;;-1.47;95.87;102255.66;1703462;84;21192;-47
2020/12/22 09:15:07;;;;;;;0.75;0.75;;;;;;;-1.47;95.85;102257.00;1705178;82;21160;-48
2020/12/22 09:17:36;;;;;;;0.95;0.70;;;;;;;-1.47;95.81;102246.28;1731872;82;21541;-47
2020/12/22 09:20:07;;;;;;;0.75;0.75;;;;;;;-1.44;95.74;102249.98;1731825;81;21133;-47
2020/12/22 09:22:35;;;;;;;0.20;0.20;;;;;;;-1.42;95.72;102245.31;1732309;82;21129;-48
2020/12/22 09:25:05;;;;;;;0.20;0.15;;;;;;;-1.40;95.61;102248.68;1732381;81;21082;-48
2020/12/22 09:27:39;;;;;;;2.85;1.65;;;;;;;-1.41;95.48;102238.96;1727021;82;21118;-47
2020/12/22 09:30:10;;;;;;;0.72;0.72;;;;;;;-1.41;95.48;102237.63;1732618;81;21134;-48
2020/12/22 09:32:41;;;;;;;0.65;0.65;;;;;;;-1.39;95.45;102234.77;1732506;82;21517;-47
2020/12/22 09:35:08;;;;;;;0.17;0.17;;;;;;;-1.38;95.32;102229.25;1732330;82;21142;-47
2020/12/22 09:37:37;;;;;;;2.02;1.20;;;;;;;-1.35;95.36;102226.25;1732254;82;21118;-48
2020/12/22 09:40:04;;;;;;;1.92;1.65;;;;;;;-1.32;95.34;102226.44;1724609;81;21154;-48
2020/12/22 09:42:33;;;;;;;0.30;0.30;;;;;;;-1.31;95.18;102214.73;1729791;81;21145;-48
2020/12/22 09:45:01;;;;;;;0.80;0.45;;;;;;;-1.31;95.19;102214.73;1726978;83;21113;-48
2020/12/22 09:47:28;;;;;;;2.80;0.78;;;;;;;-1.32;95.29;102211.18;1727138;82;21726;-49
2020/12/22 09:49:56;;;;;;;0.20;0.20;;;;;;;-1.30;95.27;102209.69;1727099;83;21546;-49
2020/12/22 09:52:23;;;;;;;1.32;0.88;;;;;;;-1.30;95.26;102203.82;1725276;82;21149;-48
2020/12/22 09:54:51;;;;;;;1.35;0.98;;;;;;;-1.27;95.23;102203.17;1727013;81;21576;-49
2020/12/22 09:57:18;;;;;;;2.30;2.10;;;;;;;-1.24;95.21;102195.63;1727071;82;21126;-47
2020/12/22 09:59:48;;;;;;;1.42;1.32;;;;;;;-1.21;95.05;102191.31;1727039;81;21150;-49
2020/12/22 10:02:16;;;;;;;1.50;0.45;;;;;;;-1.18;94.96;102187.47;1724029;83;21473;-48
2020/12/22 10:04:43;;;;;;;0.25;0.25;;;;;;;-1.16;94.93;102188.16;1719240;81;21127;-48
2020/12/22 10:07:11;;;;;;;1.47;1.37;;;;;;;-1.16;94.87;102186.31;1705888;84;21166;-49
2020/12/22 10:09:38;;;;;;;0.10;0.10;;;;;;;-1.14;94.86;102187.47;1705795;84;21157;-49
2020/12/22 10:12:05;;;;;;;0.68;0.68;;;;;;;-1.14;94.88;102190.16;1717320;82;21102;-48
2020/12/22 10:14:33;;;;;;;1.55;1.07;;;;;;;-1.14;94.77;102186.13;1735312;81;21137;-49
2020/12/22 10:17:02;;;;;;;0.80;0.80;;;;;;;-1.13;94.73;102188.66;1733457;81;21188;-48
2020/12/22 10:19:29;;;;;;;1.05;0.88;;;;;;;-1.10;94.76;102187.50;1731311;80;21484;-49
2020/12/22 10:21:57;;;;;;;0.82;0.82;;;;;;;-1.08;94.73;102184.17;1737714;82;21164;-49
2020/12/22 10:24:27;;;;;;;2.83;1.80;;;;;;;-1.06;94.72;102184.85;1725148;81;21130;-48
2020/12/22 10:26:54;;;;;;;0.45;0.45;;;;;;;-1.05;94.65;102183.84;1716213;82;21439;-48
2020/12/22 10:29:21;;;;;;;0.55;0.55;;;;;;;-1.04;94.59;102180.65;1713537;83;21521;-48
2020/12/22 10:31:49;;;;;;;0.78;0.78;;;;;;;-1.06;94.43;102178.14;1726967;82;21166;-48
2020/12/22 10:34:17;;;;;;;0.70;0.70;;;;;;;-1.06;94.40;102173.25;1696203;83;21222;-49
2020/12/22 10:36:46;;;;;;;0.30;0.30;;;;;;;-1.04;94.47;102166.72;1726814;83;21146;-49
2020/12/22 10:39:13;;;;;;;2.12;0.70;;;;;;;-1.04;94.42;102165.37;1696102;84;21131;-48
2020/12/22 10:41:40;;;;;;;1.30;0.95;;;;;;;-1.01;94.46;102164.25;1727007;83;21142;-49
2020/12/22 10:44:09;;;;;;;0.40;0.40;;;;;;;-1.00;94.42;102161.39;1722142;81;21181;-51
2020/12/22 10:46:37;;;;;;;2.45;1.10;;;;;;;-1.01;94.44;102160.22;1724192;83;21179;-49
2020/12/22 10:49:04;;;;;;;0.55;0.55;;;;;;;-1.02;94.39;102159.36;1721497;83;21127;-50
2020/12/22 10:51:33;;;;;;;1.10;1.10;;;;;;;-1.04;94.42;102161.36;1722430;83;21154;-49
2020/12/22 10:54:00;;;;;;;1.72;1.47;;;;;;;-1.07;94.44;102153.64;1732442;81;21157;-49
2020/12/22 10:56:28;;;;;;;0.10;0.10;;;;;;;-1.07;94.47;102149.61;1731810;82;21592;-48
2020/12/22 10:58:57;;;;;;;0.78;0.47;;;;;;;-1.07;94.43;102150.95;1714481;82;34680;-48
2020/12/22 11:01:25;;;;;;;0.25;0.25;;;;;;;-1.09;94.35;102148.92;1705504;84;21129;-50
2020/12/22 11:03:52;;;;;;;0.40;0.40;;;;;;;-1.13;94.35;102145.73;1708101;82;21180;-48
2020/12/22 11:06:28;;;;;;;1.17;1.10;;;;;;;-1.16;94.34;102142.05;1705162;84;21190;-48
2020/12/22 11:08:49;;;;;;;4.00;1.35;;;;;;;-1.18;94.42;102139.19;1704403;84;21745;-48
2020/12/22 11:11:16;;;;;;;1.32;1.22;;;;;;;-1.18;94.54;102139.19;1706454;84;21738;-48
2020/12/22 11:13:44;;;;;;;2.20;2.10;;;;;;;-1.17;94.56;102138.17;1706778;84;21130;-48
2020/12/22 11:16:11;;;;;;;0.35;0.35;;;;;;;-1.17;94.58;102135.48;1706379;84;21444;-49
2020/12/22 11:18:39;;;;;;;0.70;0.70;;;;;;;-1.17;94.60;102125.59;1702953;84;21157;-48
2020/12/22 11:21:11;;;;;;;1.65;0.53;;;;;;;-1.19;94.63;102127.59;1705382;84;21157;-48
2020/12/22 11:23:40;;;;;;;1.17;1.10;;;;;;;-1.19;94.54;102129.44;1707098;83;21172;-48
2020/12/22 11:26:16;;;;;;;0.13;0.13;;;;;;;-1.20;94.70;102127.77;1707269;84;21553;-48
2020/12/22 11:28:44;;;;;;;0.75;0.75;;;;;;;-1.20;94.73;102131.79;1707552;84;21531;-48
2020/12/22 11:31:11;;;;;;;0.47;0.47;;;;;;;-1.22;94.62;102127.08;1706654;84;21166;-48
2020/12/22 11:33:40;;;;;;;2.72;1.65;;;;;;;-1.25;94.75;102128.24;1704601;84;21157;-48